PACV METAR and TAF weather

Enter ICAO airport designator
Station Type Date Time Source
PACV METAR 2022/01/29 10:37 UTC NOAA

PACV 291037Z 17003KT 10SM -RA OVC030 02/00 A2925 RMK AO2 P0000 T00170000


Station Type Date Time Source
PACV Decoded METAR 2022/01/29 10:37 UTC NOAA

MERLE K. SMITH AIRPORT, AK, United States (PACV) 60-30N 145-29W 13M
Jan 29, 2022 - 05:37 AM EST / 2022.01.29 1037 UTC
Wind: from the S (170 degrees) at 3 MPH (3 KT):0
Visibility: 10 mile(s):0
Sky conditions: overcast
Weather: light rain
Precipitation last hour: A trace
Temperature: 35.1 F (1.7 C)
Dew Point: 32.0 F (0.0 C)
Relative Humidity: 88%
Pressure (altimeter): 29.25 in. Hg (990 hPa)
ob: PACV 291037Z 17003KT 10SM -RA OVC030 02/00 A2925 RMK AO2 P0000 T00170000
cycle: 10

Station Type Date Time Source
PACV TAF 2022/01/29 09:36 UTC NOAA

TAF
AMD PACV 290833Z 2909/3006 09006KT P6SM -RASN SCT025 OVC050
TEMPO 2909/2912 OVC025

Example: see airport list